createdAt,value
2023-09-07T00:04:13.421Z,21.72
2023-09-07T00:06:13.291Z,21.59
2023-09-07T00:08:13.300Z,21.56
2023-09-07T00:10:13.348Z,21.58
2023-09-07T00:12:13.276Z,21.47
2023-09-07T00:15:13.318Z,21.40
2023-09-07T00:17:13.412Z,21.37
2023-09-07T00:19:13.336Z,21.34
2023-09-07T00:21:13.330Z,21.33
2023-09-07T00:23:13.341Z,21.27
2023-09-07T00:26:13.348Z,21.24
2023-09-07T00:28:13.376Z,21.29
2023-09-07T00:30:13.336Z,21.24
2023-09-07T00:32:13.390Z,21.17
2023-09-07T00:34:13.369Z,21.21
2023-09-07T00:36:13.375Z,21.23
2023-09-07T00:38:13.343Z,21.24
2023-09-07T00:40:13.384Z,21.29
2023-09-07T00:42:13.382Z,21.28
2023-09-07T00:44:13.396Z,21.27
2023-09-07T00:47:13.458Z,21.22
2023-09-07T00:49:13.409Z,21.19
2023-09-07T00:54:13.376Z,21.19
2023-09-07T00:56:13.389Z,21.18
2023-09-07T00:58:13.446Z,21.07
2023-09-07T01:00:13.453Z,21.06
2023-09-07T01:02:13.545Z,21.10
2023-09-07T01:04:13.407Z,21.05
2023-09-07T01:06:13.471Z,21.06
2023-09-07T01:08:13.533Z,21.06
2023-09-07T01:10:13.469Z,20.95
2023-09-07T01:12:13.427Z,20.88
2023-09-07T01:16:13.597Z,20.84
2023-09-07T01:18:23.979Z,20.76
2023-09-07T01:20:13.449Z,20.83
2023-09-07T01:22:13.461Z,20.88
2023-09-07T01:24:13.495Z,20.93
2023-09-07T01:28:13.478Z,20.96
2023-09-07T01:30:13.526Z,20.98
2023-09-07T01:32:13.561Z,20.98
2023-09-07T01:34:13.522Z,21.01
2023-09-07T01:36:13.488Z,20.99
2023-09-07T01:38:13.496Z,20.88
2023-09-07T01:40:13.534Z,20.55
2023-09-07T01:42:13.540Z,20.43
2023-09-07T01:44:13.524Z,20.57
2023-09-07T01:46:13.557Z,20.65
2023-09-07T01:48:13.617Z,20.76
2023-09-07T01:50:13.610Z,20.79
2023-09-07T01:52:13.522Z,20.84
2023-09-07T01:54:13.559Z,20.87
2023-09-07T01:56:13.719Z,20.89
2023-09-07T01:59:13.597Z,20.79
2023-09-07T02:01:13.632Z,20.83
2023-09-07T02:03:13.618Z,20.85
2023-09-07T02:05:13.613Z,20.77
2023-09-07T02:07:13.559Z,20.71
2023-09-07T02:09:13.643Z,20.44
2023-09-07T02:11:13.667Z,20.43
2023-09-07T02:13:13.628Z,20.30
2023-09-07T02:16:13.709Z,20.09
2023-09-07T02:18:13.602Z,20.10
2023-09-07T02:20:13.650Z,20.00
2023-09-07T02:22:13.708Z,19.78
2023-09-07T02:24:13.665Z,19.76
2023-09-07T02:26:13.662Z,19.88
2023-09-07T02:28:13.664Z,19.77
2023-09-07T02:30:13.742Z,19.61
2023-09-07T02:32:13.676Z,19.59
2023-09-07T02:34:13.688Z,19.43
2023-09-07T02:36:13.657Z,19.35
2023-09-07T02:38:13.659Z,19.33
2023-09-07T02:40:13.714Z,19.61
2023-09-07T02:43:13.722Z,19.72
2023-09-07T02:45:13.776Z,19.89
2023-09-07T02:47:13.682Z,20.04
2023-09-07T02:49:13.679Z,20.14
2023-09-07T02:51:13.756Z,20.21
2023-09-07T02:53:13.721Z,20.27
2023-09-07T02:56:13.745Z,20.27
2023-09-07T02:58:13.770Z,20.26
2023-09-07T03:00:13.728Z,20.25
2023-09-07T03:02:13.769Z,20.28
2023-09-07T03:06:13.777Z,20.26
2023-09-07T03:08:13.778Z,20.25
2023-09-07T03:10:13.765Z,20.22
2023-09-07T03:13:13.743Z,20.18
2023-09-07T03:15:13.764Z,20.15
2023-09-07T03:17:13.939Z,20.13
2023-09-07T03:20:13.754Z,20.13
2023-09-07T03:23:13.774Z,20.15
2023-09-07T03:27:13.806Z,20.13
2023-09-07T03:29:13.798Z,20.10
2023-09-07T03:31:13.913Z,20.08
2023-09-07T03:33:13.998Z,20.05
2023-09-07T03:35:13.846Z,20.03
2023-09-07T03:39:13.851Z,19.96
2023-09-07T03:42:13.815Z,19.91
2023-09-07T03:44:13.821Z,19.84
2023-09-07T03:46:13.917Z,19.72
2023-09-07T03:48:13.925Z,19.67
2023-09-07T03:51:13.867Z,19.57
2023-09-07T03:53:13.954Z,19.63
2023-09-07T03:55:13.831Z,19.58
2023-09-07T03:58:13.890Z,19.55
2023-09-07T04:01:13.944Z,19.52
2023-09-07T04:04:13.966Z,19.50
2023-09-07T04:06:13.966Z,19.58
2023-09-07T04:08:13.886Z,19.64
2023-09-07T04:10:13.904Z,19.64
2023-09-07T04:12:13.938Z,19.65
2023-09-07T04:14:13.924Z,19.68
2023-09-07T04:16:13.958Z,19.70
2023-09-07T04:18:13.905Z,19.70
2023-09-07T04:20:13.944Z,19.69
2023-09-07T04:22:13.954Z,19.67
2023-09-07T04:24:13.953Z,19.65
2023-09-07T04:26:13.918Z,19.64
2023-09-07T04:29:13.936Z,19.62
2023-09-07T04:31:13.971Z,19.46
2023-09-07T04:33:13.978Z,19.30
2023-09-07T04:35:13.984Z,19.25
2023-09-07T04:37:14.010Z,19.27
2023-09-07T04:39:13.954Z,19.33
2023-09-07T04:41:14.081Z,19.39
2023-09-07T04:43:14.020Z,19.34
2023-09-07T04:45:14.032Z,19.27
2023-09-07T04:47:14.022Z,19.14
2023-09-07T04:50:14.010Z,19.17
2023-09-07T04:53:14.097Z,19.14
2023-09-07T04:55:14.015Z,19.01
2023-09-07T04:57:13.999Z,19.07
2023-09-07T04:59:14.056Z,19.10
2023-09-07T05:01:14.118Z,19.17
2023-09-07T05:03:14.123Z,19.24
2023-09-07T05:05:14.013Z,19.29
2023-09-07T05:07:14.066Z,19.34
2023-09-07T05:10:14.062Z,19.35
2023-09-07T05:12:14.108Z,19.39
2023-09-07T05:14:14.085Z,19.45
2023-09-07T05:17:14.095Z,19.47
2023-09-07T05:19:14.120Z,19.38
2023-09-07T05:21:14.120Z,19.36
2023-09-07T05:23:14.115Z,19.44
2023-09-07T05:25:14.114Z,19.46
2023-09-07T05:28:14.110Z,19.52
2023-09-07T05:30:14.132Z,19.49
2023-09-07T05:32:14.090Z,19.56
2023-09-07T05:34:14.109Z,19.60
2023-09-07T05:36:14.138Z,19.65
2023-09-07T05:38:14.145Z,19.74
2023-09-07T05:40:14.211Z,19.81
2023-09-07T05:42:14.130Z,19.91
2023-09-07T05:44:14.164Z,20.00
2023-09-07T05:46:14.264Z,20.12
2023-09-07T05:48:14.242Z,20.23
2023-09-07T05:50:14.141Z,20.33
2023-09-07T05:52:14.194Z,20.42
2023-09-07T05:54:14.214Z,20.52
2023-09-07T05:56:14.191Z,20.63
2023-09-07T05:58:14.223Z,20.73
2023-09-07T06:00:14.250Z,20.83
2023-09-07T06:02:14.226Z,20.92
2023-09-07T06:04:14.393Z,21.01
2023-09-07T06:06:14.189Z,21.11
2023-09-07T06:08:14.237Z,21.24
2023-09-07T06:10:14.228Z,21.37
2023-09-07T06:12:14.255Z,21.48
2023-09-07T06:14:14.192Z,21.56
2023-09-07T06:16:14.230Z,21.56
2023-09-07T06:18:14.295Z,21.60
2023-09-07T06:20:14.404Z,21.72
2023-09-07T06:22:14.264Z,21.82
2023-09-07T06:24:14.233Z,22.03
2023-09-07T06:26:14.264Z,22.27
2023-09-07T06:28:14.290Z,22.57
2023-09-07T06:30:14.290Z,22.88
2023-09-07T06:32:14.332Z,23.23
2023-09-07T06:34:14.262Z,23.59
2023-09-07T06:36:14.299Z,23.87
2023-09-07T06:38:15.516Z,24.20
2023-09-07T06:40:14.274Z,24.52
2023-09-07T06:42:14.276Z,24.93
2023-09-07T06:44:14.326Z,25.33
2023-09-07T06:46:14.365Z,25.71
2023-09-07T06:48:14.343Z,26.07
2023-09-07T06:50:14.310Z,26.49
2023-09-07T06:52:14.509Z,26.91
2023-09-07T06:54:14.419Z,27.22
2023-09-07T06:56:14.316Z,27.59
2023-09-07T06:58:14.351Z,27.91
2023-09-07T07:00:14.351Z,28.22
2023-09-07T07:02:14.453Z,28.54
2023-09-07T07:04:14.411Z,28.82
2023-09-07T07:06:14.339Z,29.14
2023-09-07T07:08:14.380Z,29.39
2023-09-07T07:10:14.400Z,29.71
2023-09-07T07:12:14.395Z,29.93
2023-09-07T07:14:14.363Z,30.24
2023-09-07T07:16:14.427Z,30.45
2023-09-07T07:18:14.424Z,30.52
2023-09-07T07:20:14.426Z,30.77
2023-09-07T07:22:14.386Z,30.88
2023-09-07T07:24:14.385Z,30.91
2023-09-07T07:26:14.460Z,31.14
2023-09-07T07:28:14.446Z,31.37
2023-09-07T07:30:14.442Z,31.65
2023-09-07T07:32:14.477Z,31.80
2023-09-07T07:34:14.448Z,32.05
2023-09-07T07:36:14.583Z,32.33
2023-09-07T07:38:14.476Z,32.53
2023-09-07T07:40:14.443Z,32.85
2023-09-07T07:42:14.440Z,32.98
2023-09-07T07:44:14.472Z,33.15
2023-09-07T07:46:14.573Z,32.82
2023-09-07T07:48:14.487Z,32.82
2023-09-07T07:50:14.470Z,32.93
2023-09-07T07:52:14.507Z,33.21
2023-09-07T07:54:14.509Z,33.40
2023-09-07T07:56:14.523Z,33.28
2023-09-07T07:58:14.469Z,33.21
2023-09-07T08:00:14.679Z,33.18
2023-09-07T08:02:14.523Z,33.29
2023-09-07T08:04:14.682Z,33.44
2023-09-07T08:07:14.572Z,33.57
2023-09-07T08:09:14.506Z,33.84
2023-09-07T08:11:14.514Z,33.92
2023-09-07T08:13:14.613Z,33.97
2023-09-07T08:15:14.560Z,34.15
2023-09-07T08:17:14.695Z,34.20
2023-09-07T08:19:14.633Z,34.38
2023-09-07T08:21:14.581Z,34.62
2023-09-07T08:23:14.601Z,34.88
2023-09-07T08:25:14.605Z,34.94
2023-09-07T08:27:14.564Z,34.58
2023-09-07T08:29:14.600Z,34.45
2023-09-07T08:31:14.657Z,34.73
2023-09-07T08:33:14.691Z,34.91
2023-09-07T08:35:14.632Z,35.09
2023-09-07T08:37:14.621Z,35.28
2023-09-07T08:39:14.655Z,35.52
2023-09-07T08:41:14.635Z,35.59
2023-09-07T08:43:14.607Z,35.81
2023-09-07T08:45:14.683Z,35.92
2023-09-07T08:47:14.641Z,35.96
2023-09-07T08:49:14.649Z,35.78
2023-09-07T08:51:14.626Z,35.67
2023-09-07T08:53:14.638Z,35.62
2023-09-07T08:55:14.677Z,35.55
2023-09-07T08:57:14.697Z,35.70
2023-09-07T08:59:14.648Z,36.02
2023-09-07T09:01:14.857Z,36.34
2023-09-07T09:03:14.934Z,36.53
2023-09-07T09:05:14.689Z,36.63
2023-09-07T09:07:14.697Z,36.65
2023-09-07T09:09:14.835Z,36.75
2023-09-07T09:11:14.711Z,36.70
2023-09-07T09:13:14.727Z,36.61
2023-09-07T09:15:14.684Z,36.63
2023-09-07T09:17:14.702Z,36.69
2023-09-07T09:19:14.738Z,36.74
2023-09-07T09:21:14.738Z,36.76
2023-09-07T09:23:14.788Z,36.77
2023-09-07T09:25:14.713Z,36.76
2023-09-07T09:27:14.718Z,36.67
2023-09-07T09:29:14.770Z,36.49
2023-09-07T09:31:14.772Z,36.37
2023-09-07T09:33:14.774Z,36.24
2023-09-07T09:35:14.754Z,36.16
2023-09-07T09:37:14.788Z,36.05
2023-09-07T09:39:14.789Z,35.83
2023-09-07T09:41:14.768Z,35.64
2023-09-07T09:43:14.755Z,35.27
2023-09-07T09:45:14.794Z,34.68
2023-09-07T09:47:14.926Z,34.05
2023-09-07T09:49:14.783Z,33.94
2023-09-07T09:51:14.773Z,33.97
2023-09-07T09:53:14.926Z,34.03
2023-09-07T09:55:14.838Z,32.76
2023-09-07T09:57:14.793Z,32.59
2023-09-07T09:59:14.940Z,32.94
2023-09-07T10:01:14.877Z,33.33
2023-09-07T10:03:14.934Z,33.67
2023-09-07T10:05:14.893Z,33.83
2023-09-07T10:07:14.869Z,33.68
2023-09-07T10:09:14.860Z,33.30
2023-09-07T10:11:14.876Z,33.48
2023-09-07T10:13:14.921Z,33.65
2023-09-07T10:15:14.869Z,33.19
2023-09-07T10:17:14.930Z,32.73
2023-09-07T10:19:14.890Z,32.98
2023-09-07T10:21:14.904Z,33.26
2023-09-07T10:23:14.885Z,33.41
2023-09-07T10:25:14.880Z,33.46
2023-09-07T10:27:14.919Z,33.58
2023-09-07T10:29:14.921Z,33.72
2023-09-07T10:31:14.950Z,33.58
2023-09-07T10:33:14.996Z,33.15
2023-09-07T10:35:14.939Z,32.69
2023-09-07T10:37:14.941Z,32.46
2023-09-07T10:39:17.303Z,31.84
2023-09-07T10:41:14.998Z,31.81
2023-09-07T10:43:14.962Z,31.92
2023-09-07T10:45:14.999Z,32.03
2023-09-07T10:47:14.943Z,31.99
2023-09-07T10:49:14.933Z,32.14
2023-09-07T10:51:14.998Z,32.27
2023-09-07T10:53:14.983Z,32.20
2023-09-07T10:55:15.049Z,31.56
2023-09-07T10:57:15.135Z,31.63
2023-09-07T10:59:14.969Z,31.90
2023-09-07T11:01:17.898Z,32.13
2023-09-07T11:03:15.154Z,31.98
2023-09-07T11:06:15.145Z,31.80
2023-09-07T11:08:15.029Z,31.63
2023-09-07T11:10:15.016Z,31.64
2023-09-07T11:12:15.039Z,31.74
2023-09-07T11:14:15.079Z,31.92
2023-09-07T11:16:15.084Z,32.11
2023-09-07T11:18:15.028Z,32.24
2023-09-07T11:20:15.042Z,32.43
2023-09-07T11:23:15.048Z,32.47
2023-09-07T11:25:15.078Z,32.59
2023-09-07T11:27:15.077Z,32.59
2023-09-07T11:29:15.086Z,32.39
2023-09-07T11:31:15.110Z,32.45
2023-09-07T11:33:15.150Z,32.50
2023-09-07T11:35:15.248Z,32.42
2023-09-07T11:37:15.138Z,32.37
2023-09-07T11:41:15.075Z,32.24
2023-09-07T11:43:15.138Z,32.03
2023-09-07T11:45:15.178Z,31.64
2023-09-07T11:47:15.112Z,31.35
2023-09-07T11:49:15.165Z,31.32
2023-09-07T11:51:15.142Z,31.37
2023-09-07T11:53:15.173Z,31.62
2023-09-07T11:55:15.226Z,31.78
2023-09-07T11:57:15.132Z,31.99
2023-09-07T11:59:15.217Z,32.15
2023-09-07T12:01:15.222Z,32.27
2023-09-07T12:03:15.199Z,32.36
2023-09-07T12:06:15.191Z,32.48
2023-09-07T12:08:15.173Z,32.30
2023-09-07T12:10:15.173Z,32.22
2023-09-07T12:12:15.199Z,31.83
2023-09-07T12:14:15.270Z,31.96
2023-09-07T12:16:15.265Z,32.09
2023-09-07T12:18:15.328Z,32.25
2023-09-07T12:20:15.254Z,32.23
2023-09-07T12:22:15.225Z,32.28
2023-09-07T12:24:15.260Z,32.38
2023-09-07T12:26:15.259Z,32.43
2023-09-07T12:28:15.241Z,32.45
2023-09-07T12:30:15.250Z,32.56
2023-09-07T12:32:15.288Z,32.54
2023-09-07T12:34:15.228Z,32.43
2023-09-07T12:36:15.237Z,32.51
2023-09-07T12:38:15.280Z,32.43
2023-09-07T12:40:15.276Z,32.26
2023-09-07T12:42:15.255Z,32.08
2023-09-07T12:44:15.255Z,32.14
2023-09-07T12:46:15.371Z,32.24
2023-09-07T12:48:15.311Z,32.30
2023-09-07T12:50:15.285Z,32.03
2023-09-07T12:52:15.292Z,31.89
2023-09-07T12:54:15.303Z,31.83
2023-09-07T12:56:15.323Z,31.87
2023-09-07T12:58:15.295Z,31.91
2023-09-07T13:00:15.302Z,31.79
2023-09-07T13:02:15.392Z,31.72
2023-09-07T13:04:15.348Z,31.85
2023-09-07T13:06:15.305Z,32.08
2023-09-07T13:08:15.309Z,32.24
2023-09-07T13:10:15.348Z,32.35
2023-09-07T13:12:15.362Z,32.36
2023-09-07T13:14:15.360Z,32.32
2023-09-07T13:16:15.364Z,32.30
2023-09-07T13:20:15.382Z,32.28
2023-09-07T13:22:15.395Z,32.04
2023-09-07T13:24:15.354Z,31.75
2023-09-07T13:26:15.383Z,31.45
2023-09-07T13:28:15.398Z,31.36
2023-09-07T13:30:15.412Z,31.38
2023-09-07T13:32:15.383Z,31.50
2023-09-07T13:34:15.378Z,31.51
2023-09-07T13:36:15.429Z,30.98
2023-09-07T13:38:15.443Z,30.73
2023-09-07T13:40:15.416Z,30.61
2023-09-07T13:42:15.409Z,30.51
2023-09-07T13:44:15.454Z,30.46
2023-09-07T13:46:15.477Z,30.61
2023-09-07T13:48:15.505Z,30.80
2023-09-07T13:50:15.434Z,31.08
2023-09-07T13:52:15.476Z,31.19
2023-09-07T13:54:15.480Z,31.26
2023-09-07T13:56:15.500Z,31.43
2023-09-07T13:58:15.450Z,31.45
2023-09-07T14:00:15.509Z,31.49
2023-09-07T14:02:15.549Z,31.51
2023-09-07T14:04:15.513Z,31.62
2023-09-07T14:07:15.522Z,31.38
2023-09-07T14:09:15.474Z,31.04
2023-09-07T14:11:15.500Z,31.14
2023-09-07T14:13:15.526Z,31.18
2023-09-07T14:15:15.535Z,31.34
2023-09-07T14:17:15.541Z,31.44
2023-09-07T14:19:15.723Z,31.31
2023-09-07T14:21:15.551Z,31.07
2023-09-07T14:23:15.558Z,31.11
2023-09-07T14:25:15.566Z,31.27
2023-09-07T14:27:15.538Z,31.34
2023-09-07T14:29:15.561Z,31.26
2023-09-07T14:31:15.634Z,31.38
2023-09-07T14:33:15.583Z,31.46
2023-09-07T14:35:15.568Z,31.34
2023-09-07T14:37:15.639Z,31.13
2023-09-07T14:39:15.587Z,30.67
2023-09-07T14:41:15.601Z,30.67
2023-09-07T14:43:15.572Z,30.42
2023-09-07T14:45:15.564Z,30.36
2023-09-07T14:47:15.609Z,30.47
2023-09-07T14:49:15.658Z,30.56
2023-09-07T14:53:15.603Z,30.75
2023-09-07T14:55:15.640Z,30.90
2023-09-07T14:57:18.135Z,30.85
2023-09-07T14:59:15.635Z,30.71
2023-09-07T15:01:15.619Z,30.60
2023-09-07T15:03:15.703Z,30.39
2023-09-07T15:05:15.748Z,30.33
2023-09-07T15:07:15.689Z,30.47
2023-09-07T15:09:15.641Z,30.63
2023-09-07T15:11:15.657Z,30.69
2023-09-07T15:13:15.686Z,30.79
2023-09-07T15:15:15.687Z,30.90
2023-09-07T15:17:15.691Z,30.98
2023-09-07T15:20:15.726Z,31.02
2023-09-07T15:23:15.745Z,30.97
2023-09-07T15:25:15.676Z,30.98
2023-09-07T15:27:15.696Z,31.00
2023-09-07T15:30:15.702Z,30.99
2023-09-07T15:32:15.811Z,30.90
2023-09-07T15:34:15.749Z,30.74
2023-09-07T15:36:15.746Z,30.80
2023-09-07T15:41:15.768Z,30.78
2023-09-07T15:43:15.730Z,30.79
2023-09-07T15:45:15.761Z,30.81
2023-09-07T15:47:15.823Z,30.74
2023-09-07T15:50:15.816Z,30.56
2023-09-07T15:52:15.792Z,30.50
2023-09-07T15:54:15.761Z,30.45
2023-09-07T15:56:15.821Z,30.47
2023-09-07T15:58:15.833Z,30.51
2023-09-07T16:00:15.820Z,30.55
2023-09-07T16:02:15.841Z,30.56
2023-09-07T16:04:15.842Z,30.53
2023-09-07T16:06:15.822Z,30.52
2023-09-07T16:09:15.808Z,30.41
2023-09-07T16:12:15.809Z,30.40
2023-09-07T16:14:15.834Z,30.39
2023-09-07T16:17:15.894Z,30.39
2023-09-07T16:19:17.387Z,30.29
2023-09-07T16:21:15.944Z,30.30
2023-09-07T16:26:15.904Z,30.29
2023-09-07T16:28:15.856Z,30.25
2023-09-07T16:30:15.863Z,30.19
2023-09-07T16:32:15.970Z,30.16
2023-09-07T16:34:15.896Z,30.16
2023-09-07T16:36:15.860Z,30.15
2023-09-07T16:38:15.890Z,30.13
2023-09-07T16:40:15.918Z,30.03
2023-09-07T16:42:15.917Z,30.01
2023-09-07T16:44:15.970Z,29.97
2023-09-07T16:46:15.948Z,29.97
2023-09-07T16:48:16.016Z,29.96
2023-09-07T16:51:15.924Z,29.93
2023-09-07T16:54:15.915Z,29.88
2023-09-07T16:56:15.933Z,29.78
2023-09-07T16:58:15.975Z,29.81
2023-09-07T17:00:16.008Z,29.82
2023-09-07T17:03:16.156Z,29.80
2023-09-07T17:05:16.140Z,29.78
2023-09-07T17:07:15.961Z,29.65
2023-09-07T17:09:15.989Z,29.51
2023-09-07T17:11:16.090Z,29.37
2023-09-07T17:13:16.004Z,29.24
2023-09-07T17:15:15.982Z,29.23
2023-09-07T17:17:16.036Z,29.26
2023-09-07T17:19:16.028Z,29.31
2023-09-07T17:21:16.026Z,29.32
2023-09-07T17:23:16.005Z,29.28
2023-09-07T17:25:16.008Z,29.16
2023-09-07T17:27:16.044Z,29.02
2023-09-07T17:29:16.052Z,28.85
2023-09-07T17:31:16.077Z,28.64
2023-09-07T17:33:16.162Z,28.53
2023-09-07T17:35:16.131Z,28.29
2023-09-07T17:37:16.078Z,28.10
2023-09-07T17:39:16.081Z,28.10
2023-09-07T17:41:16.041Z,27.73
2023-09-07T17:43:16.093Z,27.67
2023-09-07T17:45:16.106Z,27.80
2023-09-07T17:47:16.104Z,27.78
2023-09-07T17:49:16.062Z,27.70
2023-09-07T17:51:16.074Z,27.80
2023-09-07T17:53:16.122Z,27.62
2023-09-07T17:55:16.115Z,27.63
2023-09-07T17:57:16.128Z,27.68
2023-09-07T17:59:16.104Z,27.73
2023-09-07T18:01:16.249Z,27.64
2023-09-07T18:03:16.322Z,27.63
2023-09-07T18:05:16.107Z,27.54
2023-09-07T18:07:16.113Z,27.34
2023-09-07T18:10:16.127Z,27.33
2023-09-07T18:12:16.160Z,27.23
2023-09-07T18:14:16.176Z,26.99
2023-09-07T18:16:16.237Z,26.79
2023-09-07T18:18:16.204Z,26.60
2023-09-07T18:20:16.142Z,26.53
2023-09-07T18:22:16.189Z,26.22
2023-09-07T18:24:16.241Z,26.12
2023-09-07T18:26:16.496Z,26.04
2023-09-07T18:28:16.220Z,26.10
2023-09-07T18:31:16.304Z,26.15
2023-09-07T18:33:16.241Z,26.30
2023-09-07T18:35:16.225Z,26.47
2023-09-07T18:37:16.233Z,26.50
2023-09-07T18:40:16.245Z,26.41
2023-09-07T18:42:16.240Z,26.34
2023-09-07T18:44:16.214Z,25.97
2023-09-07T18:46:16.306Z,25.93
2023-09-07T18:48:16.299Z,25.83
2023-09-07T18:50:16.298Z,25.89
2023-09-07T18:52:16.246Z,26.01
2023-09-07T18:54:16.249Z,26.18
2023-09-07T18:56:16.281Z,26.30
2023-09-07T18:58:16.316Z,26.26
2023-09-07T19:00:16.369Z,26.07
2023-09-07T19:02:16.269Z,25.94
2023-09-07T19:04:16.309Z,25.97
2023-09-07T19:06:16.331Z,26.08
2023-09-07T19:08:16.287Z,26.18
2023-09-07T19:10:16.287Z,26.23
2023-09-07T19:12:16.324Z,26.18
2023-09-07T19:14:16.352Z,26.07
2023-09-07T19:16:16.342Z,25.94
2023-09-07T19:18:16.328Z,25.86
2023-09-07T19:20:16.436Z,25.46
2023-09-07T19:22:16.350Z,25.36
2023-09-07T19:24:16.363Z,25.40
2023-09-07T19:26:16.365Z,25.69
2023-09-07T19:28:16.329Z,25.93
2023-09-07T19:30:16.374Z,26.07
2023-09-07T19:32:16.368Z,26.13
2023-09-07T19:36:16.360Z,26.11
2023-09-07T19:38:16.393Z,25.97
2023-09-07T19:40:16.410Z,26.00
2023-09-07T19:43:16.409Z,26.03
2023-09-07T19:45:16.419Z,26.04
2023-09-07T19:48:16.463Z,26.05
2023-09-07T19:50:16.397Z,26.04
2023-09-07T19:52:16.403Z,26.01
2023-09-07T19:54:16.483Z,25.97
2023-09-07T19:56:16.447Z,25.90
2023-09-07T19:58:16.430Z,25.84
2023-09-07T20:00:16.491Z,25.50
2023-09-07T20:02:16.491Z,24.96
2023-09-07T20:04:16.560Z,24.96
2023-09-07T20:06:16.494Z,24.92
2023-09-07T20:08:16.448Z,24.95
2023-09-07T20:10:16.470Z,25.00
2023-09-07T20:12:16.596Z,24.94
2023-09-07T20:14:16.522Z,24.77
2023-09-07T20:16:16.578Z,24.79
2023-09-07T20:18:16.565Z,24.89
2023-09-07T20:20:16.494Z,24.94
2023-09-07T20:22:16.573Z,24.89
2023-09-07T20:24:16.488Z,25.00
2023-09-07T20:26:16.491Z,25.08
2023-09-07T20:28:16.538Z,25.10
2023-09-07T20:30:16.530Z,25.03
2023-09-07T20:32:16.604Z,25.00
2023-09-07T20:34:16.501Z,25.04
2023-09-07T20:36:16.574Z,25.08
2023-09-07T20:38:16.546Z,25.06
2023-09-07T20:40:16.522Z,25.01
2023-09-07T20:42:16.522Z,24.91
2023-09-07T20:44:16.554Z,24.69
2023-09-07T20:46:16.589Z,24.50
2023-09-07T20:48:16.594Z,23.96
2023-09-07T20:50:16.539Z,23.76
2023-09-07T20:52:16.578Z,23.88
2023-09-07T20:54:16.663Z,23.68
2023-09-07T20:58:16.599Z,23.65
2023-09-07T21:00:16.607Z,23.56
2023-09-07T21:02:16.694Z,23.29
2023-09-07T21:04:16.638Z,23.14
2023-09-07T21:06:16.649Z,23.37
2023-09-07T21:08:16.602Z,23.52
2023-09-07T21:10:16.679Z,23.43
2023-09-07T21:12:16.686Z,23.20
2023-09-07T21:14:16.605Z,23.17
2023-09-07T21:16:16.725Z,23.36
2023-09-07T21:18:16.776Z,23.58
2023-09-07T21:20:16.667Z,23.65
2023-09-07T21:22:16.660Z,23.83
2023-09-07T21:24:16.661Z,24.03
2023-09-07T21:26:16.670Z,24.16
2023-09-07T21:28:16.682Z,24.14
2023-09-07T21:30:16.738Z,24.16
2023-09-07T21:32:16.645Z,24.25
2023-09-07T21:35:16.728Z,24.25
2023-09-07T21:38:16.711Z,24.17
2023-09-07T21:40:16.711Z,23.98
2023-09-07T21:42:16.692Z,23.88
2023-09-07T21:44:16.724Z,23.88
2023-09-07T21:46:16.889Z,23.96
2023-09-07T21:48:16.694Z,23.92
2023-09-07T21:50:16.720Z,23.90
2023-09-07T21:52:16.740Z,23.87
2023-09-07T21:54:16.751Z,23.71
2023-09-07T21:56:16.768Z,23.40
2023-09-07T21:58:16.746Z,23.29
2023-09-07T22:00:16.754Z,23.41
2023-09-07T22:03:16.815Z,23.50
2023-09-07T22:05:16.801Z,23.47
2023-09-07T22:08:16.980Z,23.47
2023-09-07T22:10:16.781Z,23.38
2023-09-07T22:13:16.805Z,23.41
2023-09-07T22:15:16.849Z,23.46
2023-09-07T22:17:16.818Z,23.32
2023-09-07T22:19:16.786Z,23.30
2023-09-07T22:21:16.821Z,23.10
2023-09-07T22:23:20.680Z,23.11
2023-09-07T22:25:16.793Z,23.24
2023-09-07T22:27:16.805Z,23.34
2023-09-07T22:30:16.832Z,23.34
2023-09-07T22:32:16.840Z,23.41
2023-09-07T22:34:16.869Z,23.07
2023-09-07T22:36:16.860Z,22.55
2023-09-07T22:38:16.829Z,22.65
2023-09-07T22:40:17.087Z,22.78
2023-09-07T22:42:16.873Z,22.91
2023-09-07T22:44:16.960Z,23.04
2023-09-07T22:46:16.937Z,23.04
2023-09-07T22:48:16.869Z,22.81
2023-09-07T22:50:16.888Z,22.52
2023-09-07T22:52:16.890Z,22.56
2023-09-07T22:54:17.011Z,22.44
2023-09-07T22:56:16.869Z,22.51
2023-09-07T22:58:16.916Z,22.61
2023-09-07T23:00:16.982Z,22.64
2023-09-07T23:02:16.935Z,22.41
2023-09-07T23:04:17.072Z,22.22
2023-09-07T23:06:16.909Z,22.33
2023-09-07T23:08:16.986Z,22.45
2023-09-07T23:10:16.957Z,22.46
2023-09-07T23:12:17.095Z,22.65
2023-09-07T23:14:16.916Z,22.57
2023-09-07T23:16:16.989Z,22.53
2023-09-07T23:18:17.067Z,22.60
2023-09-07T23:20:16.949Z,22.75
2023-09-07T23:22:16.947Z,22.60
2023-09-07T23:24:17.033Z,22.68
2023-09-07T23:26:16.979Z,22.74
2023-09-07T23:28:16.965Z,22.82
2023-09-07T23:30:17.013Z,22.88
2023-09-07T23:32:17.015Z,22.92
2023-09-07T23:34:17.071Z,22.88
2023-09-07T23:37:17.043Z,22.85
2023-09-07T23:39:17.038Z,22.74
2023-09-07T23:41:16.992Z,22.54
2023-09-07T23:43:17.001Z,22.60
2023-09-07T23:45:17.013Z,22.72
2023-09-07T23:47:17.099Z,22.80
2023-09-07T23:49:17.081Z,22.83
2023-09-07T23:51:17.014Z,22.72
2023-09-07T23:54:17.029Z,22.66
2023-09-07T23:56:17.053Z,22.71
2023-09-07T23:58:17.124Z,22.75
